Time;durP1;ratioP1;P1;durP2;ratioP2;P2;SDS_P1;SDS_P2;PMS_P1;PMS_P2;Temp;Humidity;BMP_temperature;BMP_pressure;BME280_temperature;BME280_humidity;BME280_pressure;Samples;Min_cycle;Max_cycle;Signal;HPM_P1;HPM_P2
2022/05/15 00:02:25;;;;;;;9.50;3.70;;;;;;;;;;5013551;28;20409;-63
2022/05/15 00:04:52;;;;;;;8.07;4.17;;;;;;;;;;5013538;28;20481;-63
2022/05/15 00:07:19;;;;;;;6.23;3.50;;;;;;;;;;5013933;28;20450;-65
2022/05/15 00:09:48;;;;;;;7.30;3.73;;;;;;;;;;5013832;28;20449;-62
2022/05/15 00:12:16;;;;;;;7.43;4.00;;;;;;;;;;5013614;28;20461;-62
2022/05/15 00:14:43;;;;;;;7.33;4.07;;;;;;;;;;5013415;28;20493;-62
2022/05/15 00:17:10;;;;;;;11.43;4.00;;;;;;;;;;5015630;28;20458;-62
2022/05/15 00:19:38;;;;;;;8.10;4.30;;;;;;;;;;5016201;28;20453;-61
2022/05/15 00:22:07;;;;;;;6.70;3.30;;;;;;;;;;5012947;28;20460;-61
2022/05/15 00:24:34;;;;;;;8.30;3.50;;;;;;;;;;5013760;28;20473;-61
2022/05/15 00:27:03;;;;;;;7.93;4.13;;;;;;;;;;5017035;28;20452;-63
2022/05/15 00:29:30;;;;;;;9.10;3.63;;;;;;;;;;5017288;28;20456;-62
2022/05/15 00:31:57;;;;;;;10.03;3.80;;;;;;;;;;5017079;28;20453;-61
2022/05/15 00:34:25;;;;;;;6.40;3.83;;;;;;;;;;5017252;28;20492;-61
2022/05/15 00:36:52;;;;;;;7.23;3.40;;;;;;;;;;5017523;28;20450;-62
2022/05/15 00:39:20;;;;;;;8.53;3.87;;;;;;;;;;5017352;28;20454;-61
2022/05/15 00:41:47;;;;;;;8.13;4.37;;;;;;;;;;5017191;28;20454;-62
2022/05/15 00:44:16;;;;;;;7.87;4.13;;;;;;;;;;5016696;28;20977;-62
2022/05/15 00:46:44;;;;;;;9.50;4.80;;;;;;;;;;5016845;28;20450;-61
2022/05/15 00:49:12;;;;;;;6.30;3.73;;;;;;;;;;5017054;28;20449;-63
2022/05/15 00:51:42;;;;;;;9.03;3.67;;;;;;;;;;5017342;28;20457;-61
2022/05/15 00:54:11;;;;;;;7.60;3.87;;;;;;;;;;5016931;28;20485;-61
2022/05/15 00:56:39;;;;;;;8.83;3.97;;;;;;;;;;5017103;28;20457;-62
2022/05/15 00:59:09;;;;;;;7.93;3.80;;;;;;;;;;5016734;28;20779;-62
2022/05/15 01:01:38;;;;;;;11.20;4.00;;;;;;;;;;5016463;28;20441;-62
2022/05/15 01:04:05;;;;;;;9.03;4.17;;;;;;;;;;5016913;28;20461;-62
2022/05/15 01:06:33;;;;;;;10.10;3.93;;;;;;;;;;5021828;28;20457;-61
2022/05/15 01:09:02;;;;;;;15.10;4.30;;;;;;;;;;5025710;28;20449;-61
2022/05/15 01:11:29;;;;;;;7.80;4.10;;;;;;;;;;5023556;28;20449;-61
2022/05/15 01:13:57;;;;;;;7.13;4.13;;;;;;;;;;5021143;28;20477;-62
2022/05/15 01:16:25;;;;;;;4.83;3.33;;;;;;;;;;5018526;28;20446;-62
2022/05/15 01:18:57;;;;;;;7.43;3.80;;;;;;;;;;5017723;28;20445;-62
2022/05/15 01:21:30;;;;;;;8.60;4.60;;;;;;;;;;5018124;28;20430;-62
2022/05/15 01:23:58;;;;;;;7.27;3.90;;;;;;;;;;5018525;28;20461;-62
2022/05/15 01:26:26;;;;;;;6.90;4.50;;;;;;;;;;5018496;28;20445;-62
2022/05/15 01:28:54;;;;;;;7.60;4.20;;;;;;;;;;5017630;28;20441;-62
2022/05/15 01:31:21;;;;;;;13.20;5.10;;;;;;;;;;5016672;28;20460;-62
2022/05/15 01:33:49;;;;;;;11.07;4.50;;;;;;;;;;5016942;28;20474;-62
2022/05/15 01:36:17;;;;;;;9.13;4.83;;;;;;;;;;5016031;28;20442;-61
2022/05/15 01:38:46;;;;;;;8.30;5.27;;;;;;;;;;5016946;28;20451;-61
2022/05/15 01:41:13;;;;;;;9.27;4.90;;;;;;;;;;5016517;28;20496;-62
2022/05/15 01:43:43;;;;;;;7.03;4.23;;;;;;;;;;5015748;28;20990;-61
2022/05/15 01:46:10;;;;;;;9.47;4.50;;;;;;;;;;5016253;28;20445;-61
2022/05/15 01:48:38;;;;;;;8.87;5.03;;;;;;;;;;5015734;28;20446;-61
2022/05/15 01:51:06;;;;;;;14.70;5.87;;;;;;;;;;5015972;28;20446;-61
2022/05/15 01:53:33;;;;;;;7.50;4.03;;;;;;;;;;5017506;28;20480;-61
2022/05/15 01:56:03;;;;;;;9.50;4.37;;;;;;;;;;5024007;28;20481;-62
2022/05/15 01:58:31;;;;;;;10.33;4.97;;;;;;;;;;5019732;28;20448;-62
2022/05/15 02:00:58;;;;;;;7.93;4.43;;;;;;;;;;5015683;28;20867;-62
2022/05/15 02:03:25;;;;;;;10.00;4.90;;;;;;;;;;5015446;28;20473;-61
2022/05/15 02:05:52;;;;;;;9.33;4.13;;;;;;;;;;5015345;28;20438;-62
2022/05/15 02:08:20;;;;;;;7.77;4.50;;;;;;;;;;5015336;28;20815;-62
2022/05/15 02:10:47;;;;;;;7.33;4.63;;;;;;;;;;5015813;28;20453;-62
2022/05/15 02:13:16;;;;;;;8.43;4.93;;;;;;;;;;5015229;28;20476;-62
2022/05/15 02:15:44;;;;;;;10.10;4.80;;;;;;;;;;5015002;28;20517;-62
2022/05/15 02:18:11;;;;;;;9.73;4.30;;;;;;;;;;5015525;28;20442;-62
2022/05/15 02:20:38;;;;;;;15.23;6.30;;;;;;;;;;5015181;28;20449;-62
2022/05/15 02:23:06;;;;;;;11.77;4.23;;;;;;;;;;5015058;28;20961;-62
2022/05/15 02:25:34;;;;;;;11.40;4.70;;;;;;;;;;5015320;28;20445;-62
2022/05/15 02:28:01;;;;;;;10.13;4.70;;;;;;;;;;5015128;28;20453;-62
2022/05/15 02:30:30;;;;;;;11.65;4.40;;;;;;;;;;5015129;28;20206;-62
2022/05/15 02:32:57;;;;;;;10.35;4.90;;;;;;;;;;5019663;28;20210;-62
2022/05/15 02:35:24;;;;;;;7.78;4.57;;;;;;;;;;5058453;23;20233;-62
2022/05/15 02:37:51;;;;;;;7.65;4.68;;;;;;;;;;5037664;28;20206;-60
2022/05/15 02:40:20;;;;;;;8.57;4.83;;;;;;;;;;5038491;28;20202;-61
2022/05/15 02:42:48;;;;;;;8.68;5.55;;;;;;;;;;5037935;28;20902;-62
2022/05/15 02:45:15;;;;;;;8.60;4.53;;;;;;;;;;5038500;28;20218;-61
2022/05/15 02:47:45;;;;;;;7.95;4.53;;;;;;;;;;5038069;28;20449;-60
2022/05/15 02:52:57;;;;;;;7.80;5.35;;;;;;;;;;5038201;28;20228;-61
2022/05/15 02:55:25;;;;;;;10.63;4.75;;;;;;;;;;5037862;28;20257;-61
2022/05/15 02:57:53;;;;;;;7.22;6.00;;;;;;;;;;5037991;28;20206;-60
2022/05/15 03:00:20;;;;;;;10.43;4.95;;;;;;;;;;5038009;28;20233;-61
2022/05/15 03:02:49;;;;;;;5.93;4.63;;;;;;;;;;5038003;28;20206;-60
2022/05/15 03:05:17;;;;;;;7.95;5.00;;;;;;;;;;5037921;28;20724;-60
2022/05/15 03:07:45;;;;;;;8.23;4.82;;;;;;;;;;5038183;28;20281;-60
2022/05/15 03:10:13;;;;;;;10.18;4.75;;;;;;;;;;5038316;28;20205;-60
2022/05/15 03:12:40;;;;;;;10.07;5.07;;;;;;;;;;5038445;28;20206;-60
2022/05/15 03:15:11;;;;;;;13.90;6.03;;;;;;;;;;5037641;28;20229;-60
2022/05/15 03:17:38;;;;;;;13.05;5.72;;;;;;;;;;5038220;28;20600;-60
2022/05/15 03:20:08;;;;;;;8.35;5.15;;;;;;;;;;5037428;28;20675;-60
2022/05/15 03:22:36;;;;;;;8.55;5.05;;;;;;;;;;5038099;28;20205;-60
2022/05/15 03:25:03;;;;;;;10.20;5.57;;;;;;;;;;5038058;28;20628;-60
2022/05/15 03:27:31;;;;;;;7.68;4.75;;;;;;;;;;5038048;28;20214;-60
2022/05/15 03:29:58;;;;;;;5.88;4.43;;;;;;;;;;5037602;28;20198;-60
2022/05/15 03:32:25;;;;;;;8.50;5.53;;;;;;;;;;5037589;28;20206;-61
2022/05/15 03:34:53;;;;;;;9.00;5.07;;;;;;;;;;5037492;28;20233;-61
2022/05/15 03:37:21;;;;;;;8.63;6.13;;;;;;;;;;5037433;28;20202;-61
2022/05/15 03:39:49;;;;;;;6.05;5.00;;;;;;;;;;5037080;28;20202;-61
2022/05/15 03:42:17;;;;;;;9.17;5.13;;;;;;;;;;5037484;28;20207;-61
2022/05/15 03:44:44;;;;;;;9.00;4.90;;;;;;;;;;5037727;28;20484;-61
2022/05/15 03:47:11;;;;;;;6.50;4.67;;;;;;;;;;5037804;28;20469;-60
2022/05/15 03:49:39;;;;;;;10.73;5.00;;;;;;;;;;5038919;28;20448;-61
2022/05/15 03:52:06;;;;;;;8.50;4.82;;;;;;;;;;5037737;28;20202;-61
2022/05/15 03:54:35;;;;;;;9.47;4.60;;;;;;;;;;5037574;28;20233;-62
2022/05/15 03:57:02;;;;;;;14.98;4.95;;;;;;;;;;5037590;28;20448;-61
2022/05/15 03:59:32;;;;;;;10.55;5.25;;;;;;;;;;5037329;28;20202;-61
2022/05/15 04:02:00;;;;;;;9.13;4.97;;;;;;;;;;5036675;28;20233;-61
2022/05/15 04:04:27;;;;;;;10.80;5.47;;;;;;;;;;5037197;28;20469;-61
2022/05/15 04:09:45;;;;;;;9.40;5.60;;;;;;;;;;5155910;27;20536;-62
2022/05/15 04:12:13;;;;;;;8.67;5.53;;;;;;;;;;5156105;27;20443;-61
2022/05/15 04:14:40;;;;;;;7.43;4.97;;;10.70;99.90;;;;;;5167200;27;20459;-61
2022/05/15 04:17:07;;;;;;;9.20;4.83;;;11.30;99.80;;;;;;5175347;27;20517;-61
2022/05/15 04:19:35;;;;;;;7.57;5.13;;;11.50;99.40;;;;;;5175201;27;20439;-61
2022/05/15 04:22:05;;;;;;;11.17;5.40;;;11.80;99.10;;;;;;5176198;27;20439;-60
2022/05/15 04:24:33;;;;;;;9.67;5.47;;;12.10;98.50;;;;;;5175916;27;20490;-61
2022/05/15 04:27:03;;;;;;;8.27;4.90;;;12.40;97.60;;;;;;5175306;27;20442;-60
2022/05/15 04:29:30;;;;;;;9.50;5.57;;;12.70;96.80;;;;;;5175485;27;20459;-58
2022/05/15 04:31:57;;;;;;;8.23;4.80;;;12.90;95.80;;;;;;5175345;27;20442;-60
2022/05/15 04:34:24;;;;;;;9.27;5.50;;;13.20;94.90;;;;;;5175430;27;20467;-61
2022/05/15 04:36:52;;;;;;;8.33;4.70;;;13.40;93.80;;;;;;5175015;27;20450;-60
2022/05/15 04:39:19;;;;;;;8.23;4.93;;;13.60;92.80;;;;;;5175208;27;20439;-60
2022/05/15 04:41:46;;;;;;;13.03;5.37;;;13.80;92.10;;;;;;5174685;27;20845;-60
2022/05/15 04:44:15;;;;;;;13.67;5.80;;;13.90;91.30;;;;;;5173999;27;20459;-60
2022/05/15 04:46:42;;;;;;;10.73;4.60;;;14.10;90.70;;;;;;5173834;27;20516;-61
2022/05/15 04:49:09;;;;;;;6.87;4.17;;;14.30;90.00;;;;;;5173668;27;20479;-61
2022/05/15 04:51:36;;;;;;;8.13;4.80;;;14.40;88.40;;;;;;5174023;27;20449;-61
2022/05/15 04:54:04;;;;;;;9.70;4.70;;;14.60;86.70;;;;;;5173321;27;20455;-61
2022/05/15 04:56:31;;;;;;;8.27;4.60;;;14.80;84.80;;;;;;5173673;27;20446;-61
2022/05/15 04:58:58;;;;;;;7.80;4.77;;;15.00;83.30;;;;;;5174403;27;20437;-61
2022/05/15 05:01:27;;;;;;;7.10;4.77;;;15.20;81.50;;;;;;5176390;27;20443;-62
2022/05/15 05:03:55;;;;;;;11.20;5.50;;;15.50;79.40;;;;;;5178227;27;20463;-61
2022/05/15 05:06:22;;;;;;;8.30;4.53;;;15.70;77.40;;;;;;5178117;27;20439;-61
2022/05/15 05:08:50;;;;;;;8.67;3.90;;;15.80;75.00;;;;;;5178351;27;20512;-61
2022/05/15 05:11:17;;;;;;;9.70;4.47;;;15.90;73.50;;;;;;5178208;27;20439;-61
2022/05/15 05:13:44;;;;;;;7.57;4.23;;;16.10;72.60;;;;;;5178431;27;20458;-59
2022/05/15 05:16:12;;;;;;;9.97;4.43;;;16.20;70.80;;;;;;5176707;27;20442;-59
2022/05/15 05:18:40;;;;;;;7.40;4.17;;;16.30;69.50;;;;;;5175474;27;20505;-59
2022/05/15 05:21:08;;;;;;;10.37;4.93;;;16.30;68.40;;;;;;5163360;27;20454;-60
2022/05/15 05:23:35;;;;;;;8.47;4.50;;;16.30;67.60;;;;;;5162377;27;20439;-60
2022/05/15 05:26:03;;;;;;;10.90;5.33;;;16.40;66.90;;;;;;5162338;27;20448;-60
2022/05/15 05:28:30;;;;;;;9.73;4.63;;;16.40;66.00;;;;;;5159915;27;20528;-60
2022/05/15 05:30:58;;;;;;;9.13;5.10;;;16.30;65.50;;;;;;5159822;27;20451;-60
2022/05/15 05:33:25;;;;;;;6.87;4.27;;;16.20;65.10;;;;;;5159145;27;20439;-60
2022/05/15 05:35:54;;;;;;;7.30;4.40;;;16.20;64.80;;;;;;5159290;27;20950;-60
2022/05/15 05:38:21;;;;;;;10.60;4.43;;;16.20;64.50;;;;;;5159373;27;20463;-60
2022/05/15 05:40:48;;;;;;;8.90;3.93;;;16.20;64.20;;;;;;5158733;27;20443;-60
2022/05/15 05:43:15;;;;;;;7.97;4.10;;;16.20;63.90;;;;;;5159451;27;20443;-59
2022/05/15 05:45:43;;;;;;;9.97;4.70;;;16.20;63.50;;;;;;5159916;27;21042;-61
2022/05/15 05:48:10;;;;;;;11.67;4.60;;;16.30;63.20;;;;;;5162124;27;20478;-60
2022/05/15 05:50:37;;;;;;;6.43;4.10;;;16.30;62.70;;;;;;5161269;27;20448;-60
2022/05/15 05:53:06;;;;;;;7.00;4.13;;;16.30;63.00;;;;;;5163353;27;20443;-60
2022/05/15 05:55:33;;;;;;;7.50;4.47;;;16.30;62.80;;;;;;5162526;27;20471;-60
2022/05/15 05:58:01;;;;;;;7.83;4.07;;;16.40;62.50;;;;;;5161537;27;20454;-60
2022/05/15 06:00:31;;;;;;;9.93;4.30;;;16.40;62.40;;;;;;5159263;27;20443;-59
2022/05/15 06:05:40;;;;;;;9.43;4.53;;;16.40;62.00;;;;;;5158745;27;20440;-61
2022/05/15 06:08:08;;;;;;;7.70;4.43;;;16.20;61.90;;;;;;5159070;27;20554;-60
2022/05/15 06:10:36;;;;;;;8.47;4.33;;;16.20;62.40;;;;;;5158241;27;20447;-60
2022/05/15 06:13:03;;;;;;;7.93;5.17;;;16.20;62.40;;;;;;5157280;27;20443;-61
2022/05/15 06:15:30;;;;;;;10.57;4.40;;;16.20;62.20;;;;;;5157372;27;20471;-61
2022/05/15 06:17:59;;;;;;;7.73;4.10;;;16.20;61.80;;;;;;5157688;27;20453;-61
2022/05/15 06:20:27;;;;;;;8.53;4.90;;;16.30;61.50;;;;;;5157259;27;20509;-61
2022/05/15 06:22:54;;;;;;;7.07;4.60;;;16.20;61.00;;;;;;5157713;27;20435;-60
2022/05/15 06:25:23;;;;;;;11.73;4.20;;;16.20;61.10;;;;;;5158053;27;20460;-62
2022/05/15 06:27:50;;;;;;;8.90;4.57;;;16.20;61.00;;;;;;5157213;27;20443;-61
2022/05/15 06:30:18;;;;;;;7.67;4.53;;;16.20;60.60;;;;;;5156841;27;20486;-61
2022/05/15 06:32:46;;;;;;;10.13;4.63;;;16.30;60.30;;;;;;5155769;27;20435;-61
2022/05/15 06:35:15;;;;;;;7.60;4.83;;;16.30;60.00;;;;;;5156572;27;20467;-61
2022/05/15 06:37:42;;;;;;;12.63;6.03;;;16.40;59.70;;;;;;5156742;27;20457;-60
2022/05/15 06:40:13;;;;;;;7.57;4.20;;;16.40;59.40;;;;;;5156530;27;20451;-61
2022/05/15 06:42:42;;;;;;;5.90;4.50;;;16.40;59.20;;;;;;5156539;27;20933;-61
2022/05/15 06:45:10;;;;;;;6.83;4.30;;;16.50;59.20;;;;;;5157095;27;20463;-61
2022/05/15 06:47:38;;;;;;;8.23;4.00;;;16.50;58.90;;;;;;5156850;27;20943;-62
2022/05/15 06:50:07;;;;;;;11.33;4.27;;;16.60;58.70;;;;;;5157397;27;20471;-60
2022/05/15 06:52:36;;;;;;;8.67;4.20;;;16.50;58.50;;;;;;5157127;27;20463;-60
2022/05/15 06:55:04;;;;;;;8.70;4.70;;;16.50;58.50;;;;;;5156887;27;20566;-60
2022/05/15 06:57:32;;;;;;;11.73;4.23;;;16.60;58.50;;;;;;5157345;27;20444;-60
2022/05/15 07:00:04;;;;;;;9.00;3.80;;;16.60;58.50;;;;;;5157056;27;20435;-60
2022/05/15 07:02:31;;;;;;;9.53;3.93;;;16.60;58.10;;;;;;5156868;27;20420;-60
2022/05/15 07:04:58;;;;;;;5.83;3.77;;;16.70;58.00;;;;;;5156647;27;20476;-63
2022/05/15 07:07:26;;;;;;;9.93;4.80;;;16.80;57.80;;;;;;5158565;27;20447;-61
2022/05/15 07:09:53;;;;;;;7.93;4.40;;;16.80;57.80;;;;;;5157153;27;20503;-62
2022/05/15 07:12:20;;;;;;;8.83;4.90;;;16.70;57.80;;;;;;5156502;27;20813;-62
2022/05/15 07:14:48;;;;;;;8.93;3.73;;;16.80;57.90;;;;;;5156335;27;20962;-62
2022/05/15 07:17:16;;;;;;;8.83;4.10;;;16.80;57.80;;;;;;5158447;27;20795;-62
2022/05/15 07:19:43;;;;;;;16.23;4.87;;;16.90;57.70;;;;;;5157552;27;20436;-61
2022/05/15 07:22:11;;;;;;;13.63;4.10;;;16.90;57.50;;;;;;5158951;27;20883;-61
2022/05/15 07:24:39;;;;;;;12.40;5.60;;;17.00;57.60;;;;;;5156415;27;20461;-62
2022/05/15 07:27:07;;;;;;;10.00;3.80;;;17.10;57.50;;;;;;5155415;27;20482;-61
2022/05/15 07:29:36;;;;;;;11.30;3.67;;;17.20;57.40;;;;;;5155400;27;20475;-61
2022/05/15 07:32:04;;;;;;;7.47;3.87;;;17.30;57.20;;;;;;5155737;27;20443;-61
2022/05/15 07:34:33;;;;;;;10.80;5.07;;;17.50;56.80;;;;;;5155543;27;20452;-61
2022/05/15 07:37:01;;;;;;;8.20;3.47;;;17.60;56.50;;;;;;5155576;27;20444;-61
2022/05/15 07:39:28;;;;;;;7.10;4.10;;;17.80;56.20;;;;;;5156167;27;20443;-61
2022/05/15 07:41:55;;;;;;;8.83;4.13;;;17.90;56.00;;;;;;5155949;27;20450;-61
2022/05/15 07:44:22;;;;;;;10.73;4.10;;;17.90;55.70;;;;;;5155152;27;20466;-61
2022/05/15 07:46:50;;;;;;;7.77;3.80;;;18.00;55.50;;;;;;5155380;27;20454;-61
2022/05/15 07:49:17;;;;;;;9.27;3.57;;;18.00;55.30;;;;;;5155832;27;20497;-62
2022/05/15 07:51:46;;;;;;;9.43;4.00;;;18.00;55.30;;;;;;5155208;27;20450;-61
2022/05/15 07:54:13;;;;;;;11.97;4.60;;;17.90;55.40;;;;;;5155014;27;20463;-62
2022/05/15 07:56:40;;;;;;;10.33;4.27;;;18.00;55.50;;;;;;5154824;27;20443;-62
2022/05/15 07:59:07;;;;;;;7.63;3.80;;;18.00;55.40;;;;;;5154799;27;20440;-61
2022/05/15 08:01:35;;;;;;;10.50;4.53;;;18.20;55.20;;;;;;5155317;27;20443;-59
2022/05/15 08:04:02;;;;;;;7.10;3.80;;;18.30;54.90;;;;;;5155302;27;20594;-60
2022/05/15 08:09:15;;;;;;;8.70;3.37;;;18.60;54.20;;;;;;5154572;27;20486;-60
2022/05/15 08:11:42;;;;;;;7.80;3.87;;;18.70;54.10;;;;;;5155163;27;20440;-61
2022/05/15 08:14:11;;;;;;;8.47;3.93;;;18.80;53.90;;;;;;5155247;27;20463;-61
2022/05/15 08:16:38;;;;;;;7.37;3.53;;;18.80;53.70;;;;;;5155783;27;20440;-61
2022/05/15 08:24:38;;;;;;;7.63;3.47;;;19.10;52.60;;;;;;5154969;27;20439;-61
2022/05/15 08:27:05;;;;;;;10.13;3.80;;;19.10;52.30;;;;;;5155134;27;20471;-61
2022/05/15 08:29:32;;;;;;;6.10;3.30;;;19.20;52.30;;;;;;5155115;27;20475;-60
2022/05/15 08:32:00;;;;;;;12.43;3.77;;;19.40;52.10;;;;;;5155861;27;20444;-62
2022/05/15 08:36:57;;;;;;;9.40;3.60;;;19.80;51.00;;;;;;5143055;22;20538;-62
2022/05/15 08:39:24;;;;;;;9.13;3.63;;;19.80;50.50;;;;;;5113231;28;20438;-61
2022/05/15 08:42:07;;;;;;;11.97;3.80;;;19.90;50.10;;;;;;5113392;28;20562;-62
2022/05/15 08:44:38;;;;;;;9.50;3.60;;;20.00;50.00;;;;;;5112890;28;20543;-60
2022/05/15 08:47:15;;;;;;;8.47;3.80;;;20.10;49.90;;;;;;5113950;28;20468;-62
2022/05/15 08:49:47;;;;;;;5.50;3.50;;;20.20;49.70;;;;;;5113493;28;20464;-61
2022/05/15 08:52:16;;;;;;;10.07;4.07;;;20.30;49.30;;;;;;5112922;28;20434;-60
2022/05/15 08:54:52;;;;;;;5.90;3.50;;;20.30;49.10;;;;;;5114071;28;20448;-60
2022/05/15 08:57:27;;;;;;;9.90;4.20;;;20.30;48.90;;;;;;5117169;28;20417;-61
2022/05/15 08:59:57;;;;;;;6.27;4.03;;;20.30;48.70;;;;;;5116864;28;20432;-61
2022/05/15 09:02:25;;;;;;;12.23;4.37;;;20.40;48.70;;;;;;5117136;28;20421;-61
2022/05/15 09:04:53;;;;;;;9.87;3.83;;;20.40;48.60;;;;;;5117365;28;20449;-61
2022/05/15 09:07:36;;;;;;;10.47;4.40;;;20.30;48.50;;;;;;5116353;28;20441;-60
2022/05/15 09:10:15;;;;;;;10.30;4.20;;;20.40;48.60;;;;;;5116451;28;20483;-60
2022/05/15 09:12:47;;;;;;;11.53;5.30;;;20.50;48.60;;;;;;5116382;28;20433;-61
2022/05/15 09:15:18;;;;;;;9.57;4.30;;;20.70;48.50;;;;;;5116611;28;20472;-60
2022/05/15 09:17:48;;;;;;;10.33;4.27;;;21.00;48.20;;;;;;5116665;28;20437;-60
2022/05/15 09:20:20;;;;;;;10.50;4.53;;;21.20;47.70;;;;;;5116229;28;20445;-61
2022/05/15 09:22:57;;;;;;;9.07;4.73;;;21.20;47.20;;;;;;5116262;28;20800;-61
2022/05/15 09:25:26;;;;;;;13.40;4.70;;;21.00;47.20;;;;;;5115935;28;20551;-61
2022/05/15 09:28:03;;;;;;;10.40;5.13;;;20.90;47.50;;;;;;5116532;28;20441;-63
2022/05/15 09:30:35;;;;;;;10.60;4.70;;;20.80;47.70;;;;;;5116585;28;20855;-61
2022/05/15 09:33:02;;;;;;;8.60;4.63;;;20.90;47.60;;;;;;5115906;28;20800;-62
2022/05/15 09:35:33;;;;;;;11.50;4.23;;;21.10;47.40;;;;;;5115439;28;20523;-60
2022/05/15 09:43:33;;;;;;;11.03;5.00;;;21.50;46.70;;;;;;5115194;28;20504;-60
2022/05/15 09:46:10;;;;;;;7.53;3.77;;;21.50;46.30;;;;;;5116131;28;20676;-61
2022/05/15 09:48:40;;;;;;;10.40;3.93;;;21.60;46.00;;;;;;5116008;28;20954;-61
2022/05/15 09:51:12;;;;;;;12.63;4.47;;;21.70;45.70;;;;;;5115850;28;20500;-62
2022/05/15 09:53:42;;;;;;;9.07;4.00;;;21.70;45.30;;;;;;5115924;28;20741;-61
2022/05/15 09:56:11;;;;;;;10.40;3.90;;;21.70;44.90;;;;;;5115967;28;20453;-61
2022/05/15 09:58:44;;;;;;;11.63;4.10;;;21.60;44.70;;;;;;5115577;28;20913;-61
2022/05/15 10:01:24;;;;;;;11.90;3.97;;;21.50;44.90;;;;;;5115449;28;20451;-61
2022/05/15 10:03:54;;;;;;;9.20;4.53;;;21.40;45.00;;;;;;5115905;28;20434;-61
2022/05/15 10:06:23;;;;;;;19.90;8.73;;;21.40;45.00;;;;;;5115229;28;20965;-61
2022/05/15 10:09:12;;;;;;;13.17;7.73;;;21.50;45.00;;;;;;5115684;28;20532;-61
2022/05/15 10:11:43;;;;;;;11.37;4.30;;;21.70;44.90;;;;;;5115486;28;20429;-61
2022/05/15 10:14:23;;;;;;;11.90;5.73;;;21.90;44.40;;;;;;5115570;28;20827;-61
2022/05/15 10:16:53;;;;;;;22.70;17.53;;;21.90;44.20;;;;;;5115922;28;20488;-62
2022/05/15 10:19:32;;;;;;;13.80;7.10;;;22.00;44.20;;;;;;5115563;28;20426;-62
2022/05/15 10:22:11;;;;;;;7.77;3.87;;;22.20;43.90;;;;;;5115373;28;20457;-61
2022/05/15 10:24:42;;;;;;;11.20;4.53;;;22.30;43.20;;;;;;5115658;28;20452;-62
2022/05/15 10:27:15;;;;;;;9.73;4.40;;;22.30;43.10;;;;;;5115336;28;20461;-61
2022/05/15 10:29:51;;;;;;;6.70;4.17;;;22.30;43.00;;;;;;5122166;28;20493;-62
2022/05/15 10:32:22;;;;;;;8.53;4.37;;;22.30;42.80;;;;;;5123933;28;20428;-61
2022/05/15 10:34:49;;;;;;;9.60;3.80;;;22.20;43.00;;;;;;5117738;28;20508;-62
2022/05/15 10:37:38;;;;;;;9.07;4.47;;;22.30;43.10;;;;;;5118254;28;20429;-61
2022/05/15 10:40:25;;;;;;;8.50;3.57;;;22.40;43.20;;;;;;5095676;28;20452;-62
2022/05/15 10:43:04;;;;;;;14.27;3.83;;;22.70;42.80;;;;;;5116638;28;20445;-61
2022/05/15 10:45:39;;;;;;;12.10;4.57;;;22.70;42.30;;;;;;5115246;28;20511;-62
2022/05/15 10:48:27;;;;;;;14.30;4.13;;;22.70;42.40;;;;;;5114583;28;20897;-61
2022/05/15 10:51:00;;;;;;;9.63;4.30;;;22.70;42.30;;;;;;5114917;28;20540;-60
2022/05/15 10:59:46;;;;;;;12.03;3.67;;;23.10;41.50;;;;;;5031513;28;20424;-62
2022/05/15 11:02:48;;;;;;;12.53;4.47;;;23.10;41.10;;;;;;5031543;28;20425;-62
2022/05/15 11:05:21;;;;;;;6.17;3.70;;;23.00;41.20;;;;;;5090697;28;20493;-62
2022/05/15 11:07:57;;;;;;;8.40;3.43;;;23.00;41.20;;;;;;5114631;28;20426;-61
2022/05/15 11:10:29;;;;;;;9.40;4.03;;;23.10;40.80;;;;;;5115652;28;20484;-61
2022/05/15 11:13:09;;;;;;;9.60;3.90;;;23.10;40.70;;;;;;5117407;28;20434;-61
2022/05/15 11:15:49;;;;;;;9.60;3.60;;;23.00;40.80;;;;;;5119779;28;20491;-61
2022/05/15 11:18:35;;;;;;;11.03;3.97;;;23.00;40.80;;;;;;5118362;28;20440;-61
2022/05/15 11:21:05;;;;;;;7.60;3.90;;;23.10;40.40;;;;;;5119251;28;20422;-61
2022/05/15 11:23:42;;;;;;;8.60;4.10;;;23.20;40.10;;;;;;5119049;28;20429;-62
2022/05/15 11:26:16;;;;;;;10.63;3.67;;;23.20;39.60;;;;;;5119529;28;20471;-61
2022/05/15 11:28:47;;;;;;;8.60;4.30;;;23.10;39.40;;;;;;5117905;28;20425;-61
2022/05/15 11:31:19;;;;;;;8.53;3.90;;;23.10;39.50;;;;;;5116353;28;21037;-61
2022/05/15 11:33:53;;;;;;;9.07;3.93;;;23.20;39.30;;;;;;5116851;28;20441;-62
2022/05/15 11:36:35;;;;;;;5.90;3.47;;;23.10;39.10;;;;;;5116594;28;20488;-61
2022/05/15 11:39:24;;;;;;;9.37;3.97;;;23.10;38.70;;;;;;5115784;28;20475;-61
2022/05/15 11:42:17;;;;;;;7.77;3.73;;;23.00;38.60;;;;;;5114859;28;20954;-61
2022/05/15 11:44:46;;;;;;;7.73;3.80;;;22.80;38.80;;;;;;5114364;28;20433;-61
2022/05/15 11:47:34;;;;;;;7.53;3.00;;;22.70;39.10;;;;;;5113649;28;20449;-61
2022/05/15 11:50:14;;;;;;;10.30;3.90;;;23.00;39.10;;;;;;5113909;28;20465;-61
2022/05/15 11:53:02;;;;;;;6.30;2.70;;;23.60;38.60;;;;;;5113170;28;20422;-61
2022/05/15 11:55:46;;;;;;;7.00;3.67;;;24.40;37.70;;;;;;5113262;28;20461;-61
2022/05/15 11:58:36;;;;;;;4.80;3.00;;;25.30;36.40;;;;;;5111269;28;20452;-61
2022/05/15 12:01:12;;;;;;;7.40;3.00;;;25.90;35.10;;;;;;5113433;28;20486;-61
2022/05/15 12:03:51;;;;;;;6.60;2.80;;;26.00;34.10;;;;;;5113283;28;20504;-61
2022/05/15 12:06:23;;;;;;;12.67;4.00;;;26.10;34.00;;;;;;5113312;28;20529;-62
2022/05/15 12:09:12;;;;;;;9.00;3.10;;;26.30;33.60;;;;;;5113394;28;20881;-61
2022/05/15 12:11:39;;;;;;;7.73;3.17;;;26.40;33.10;;;;;;5113226;28;20464;-60
2022/05/15 12:14:35;;;;;;;9.77;3.10;;;26.50;32.80;;;;;;5113379;28;20441;-61
2022/05/15 12:17:16;;;;;;;6.20;3.70;;;26.70;32.50;;;;;;5113878;28;20874;-60
2022/05/15 12:19:46;;;;;;;8.00;2.70;;;27.00;32.30;;;;;;5112925;28;20433;-61
2022/05/15 12:22:16;;;;;;;8.10;2.93;;;27.20;32.20;;;;;;5112990;28;20441;-62
2022/05/15 12:24:47;;;;;;;7.20;2.93;;;27.40;31.90;;;;;;5113464;28;20441;-61
2022/05/15 12:27:21;;;;;;;9.73;2.60;;;27.40;31.70;;;;;;5113268;28;20434;-61
2022/05/15 12:30:13;;;;;;;8.30;3.03;;;27.20;31.60;;;;;;5113920;28;20897;-61
2022/05/15 12:32:44;;;;;;;6.17;2.70;;;27.00;31.80;;;;;;5116836;28;20429;-61
2022/05/15 12:35:15;;;;;;;9.97;2.53;;;26.50;32.10;;;;;;5117364;28;20473;-62
2022/05/15 12:37:56;;;;;;;7.10;2.87;;;26.00;32.90;;;;;;5117804;28;20433;-62
2022/05/15 12:40:31;;;;;;;7.20;2.80;;;25.50;33.50;;;;;;5117170;28;20422;-60
2022/05/15 12:42:58;;;;;;;6.63;2.60;;;25.20;34.00;;;;;;5116528;28;20865;-61
2022/05/15 12:45:26;;;;;;;6.67;2.63;;;25.00;34.00;;;;;;5116833;28;20469;-61
2022/05/15 12:48:07;;;;;;;8.00;2.90;;;24.90;34.00;;;;;;5116641;28;20806;-61
2022/05/15 12:50:47;;;;;;;4.93;2.60;;;24.70;33.60;;;;;;5116649;28;20547;-61
2022/05/15 12:53:20;;;;;;;5.57;3.00;;;24.50;33.40;;;;;;5117063;28;20432;-61
2022/05/15 12:55:47;;;;;;;8.10;2.47;;;24.30;33.50;;;;;;5116283;28;20976;-60
2022/05/15 12:58:14;;;;;;;10.27;2.97;;;24.20;33.70;;;;;;5116666;28;20445;-61
2022/05/15 13:00:43;;;;;;;4.70;2.50;;;24.20;34.10;;;;;;5116637;28;20441;-61
2022/05/15 13:03:12;;;;;;;4.97;2.57;;;24.30;34.10;;;;;;5116625;28;20484;-61
2022/05/15 13:05:52;;;;;;;8.23;2.63;;;24.40;33.80;;;;;;5116211;28;20457;-62
2022/05/15 13:08:20;;;;;;;5.20;2.30;;;24.40;33.80;;;;;;5116589;28;20425;-61
2022/05/15 13:10:55;;;;;;;7.57;2.77;;;24.40;33.80;;;;;;5116595;28;20492;-61
2022/05/15 13:13:25;;;;;;;7.37;3.20;;;24.30;33.80;;;;;;5116885;28;20608;-61
2022/05/15 13:15:55;;;;;;;6.53;2.73;;;24.20;34.00;;;;;;5116333;28;20476;-62
2022/05/15 13:18:24;;;;;;;8.60;2.60;;;24.20;34.20;;;;;;5115837;28;20448;-61
2022/05/15 13:21:01;;;;;;;6.10;2.83;;;24.40;34.40;;;;;;5116205;28;20441;-62
2022/05/15 13:23:33;;;;;;;5.90;2.30;;;24.60;34.40;;;;;;5115614;28;20457;-61
2022/05/15 13:26:02;;;;;;;7.63;2.87;;;24.70;34.00;;;;;;5115785;28;20492;-61
2022/05/15 13:28:32;;;;;;;9.30;2.97;;;24.60;33.80;;;;;;5116014;28;20449;-61
2022/05/15 13:30:59;;;;;;;5.27;2.60;;;24.50;34.00;;;;;;5116204;28;20481;-62
2022/05/15 13:33:29;;;;;;;6.47;2.47;;;24.40;34.10;;;;;;5115914;28;20445;-62
2022/05/15 13:36:00;;;;;;;7.20;2.60;;;24.40;34.00;;;;;;5115426;28;20530;-61
2022/05/15 13:38:32;;;;;;;8.00;2.67;;;24.30;33.80;;;;;;5115990;28;20438;-61
2022/05/15 13:43:58;;;;;;;10.70;4.27;;;24.30;34.20;;;;;;5116396;28;20787;-60
2022/05/15 13:46:27;;;;;;;6.53;2.13;;;24.40;34.30;;;;;;5115778;28;20510;-61
2022/05/15 13:48:58;;;;;;;7.30;3.40;;;24.50;34.10;;;;;;5115711;28;20448;-61
2022/05/15 13:51:40;;;;;;;14.13;11.40;;;24.40;34.00;;;;;;5116336;28;20487;-61
2022/05/15 13:54:12;;;;;;;7.03;3.40;;;24.40;34.10;;;;;;5116321;28;20425;-62
2022/05/15 13:56:40;;;;;;;8.30;3.10;;;24.40;34.00;;;;;;5116328;28;20457;-61
2022/05/15 13:59:26;;;;;;;6.67;2.77;;;24.50;34.00;;;;;;5116492;28;20862;-62
2022/05/15 14:02:12;;;;;;;6.70;2.40;;;24.50;33.30;;;;;;5115958;28;20426;-60
2022/05/15 14:04:41;;;;;;;7.43;2.27;;;24.40;33.00;;;;;;5116425;28;20425;-61
2022/05/15 14:07:09;;;;;;;6.73;2.30;;;24.40;33.70;;;;;;5115995;28;20450;-61